UATGOITT

Guest
Details From UATG - Atyrau
To OITT - Tabriz Intl
Flight Number -
Tags Generated
Created
Modified
Stats Distance 595 nm / 1,101 km
Max Altitude 0 ft / 0 m
Waypoints 4
Social Downloads 1
Likes 0
Share VATSIM

Download

Looking for another format? Having issues loading an existing format? Contact us
Advertisement - Login to hide

Notes

Generated

Route

UATG BENSI TBZ OITT

ID Type Via Altitude Latitude Longitude Leg Dist Tot Dist Heading (true) Name
O UATG APT - 0 ft / 0 m 47.13361˚ 51.81139˚ - 0 nm - -
BENSI FIX - 0 ft / 0 m 42.68500˚ 49.18833˚ 289 nm 289 nm 204° / 202° -
TBZ VOR - 0 ft / 0 m 38.13908˚ 46.23089˚ 304 nm 594 nm 207° / 205° TABRIZ VORTAC
O OITT APT - 0 ft / 0 m 38.14227˚ 46.21870˚ 0 nm 594 nm 288° / 288° -

Altitude Profile

Advertisement - Login to hide

Weather


0- 5 10 15 20 25 30 35+ Temperature / ° C

Clouds and Precipitation
Forecast for 2017-12-14 00:00 UTC. Updated 2 hours ago

Ground ~20,000 ft ~40,000 ft Winds

UATG

Details ICAO UATG (GUW)
Name ATYRAU
Region Kazakhstan and Kyrgyzstan
Timezone Asia/Aqtau (UTC+5.0)
Stats Elevation -72 ft / -22 m (AMSL)
Location 47.121939° 51.821307°
Runways 1
Magnetic Variation 8.891° E

METAR

UATG 140100Z 12007MPS 9999 BKN046 M06/M08 Q1033 R14/82//65 NOSIG RMK QFE777/1036

Decode

TAF

TAF UATG 132302Z 1400/1424 13009MPS 3000 BR SCT010 BKN020CB TXM02/1411Z TNM06/1403Z BECMG 1406/1408 12009G14MPS 9999 NSW

Decode

Departure Runways

ID Width Length Bearing (true) Bearing (mag) Surface Threshold Offset Overrun Length
14 144 ft / 44 m 9,839 ft / 2,999 m 149.96° 141.07° Asphalt 0 ft / 0 m 0 ft / 0 m
32 144 ft / 44 m 9,839 ft / 2,999 m 329.98° 321.09° Asphalt 0 ft / 0 m 0 ft / 0 m

OITT

Details ICAO OITT (TBZ)
Name TABRIZ INTL
Region Iran
Timezone Asia/Tehran (UTC+3.5)
Stats Elevation 4,459 ft / 1,359 m (AMSL)
Location 38.132990° 46.234937°
Runways 2
Magnetic Variation 5.632° E

METAR

OITT 140100Z 04006KT 5000 HZ NSC M04/M08 Q1022 A3019

Decode

TAF

TAF OITT 131730Z 1318/1424 06004MPS 4000 BR HZ NSC BECMG 1408/1410 6000 TEMPO 1410/1415 21006MPS

Decode

Destination Runways

ID Width Length Bearing (true) Bearing (mag) Surface Threshold Offset Overrun Length
12L 148 ft / 45 m 11,818 ft / 3,602 m 129.05° 123.42° Asphalt 0 ft / 0 m 355 ft / 108 m
12R 98 ft / 30 m 11,531 ft / 3,515 m 128.97° 123.34° Asphalt 0 ft / 0 m 340 ft / 104 m
30L 98 ft / 30 m 11,531 ft / 3,515 m 308.99° 303.36° Asphalt 0 ft / 0 m 1,130 ft / 344 m
30R 148 ft / 45 m 11,818 ft / 3,602 m 309.07° 303.44° Asphalt 0 ft / 0 m 340 ft / 104 m

Approach Navaids

Runway Type Ident Frequency Range Bearing (true) Bearing (mag) Slope Elevation
30R Localiser ITBZ 109.90 MHz 18 nm / 33 km 309.03° 303.40° - 4,459 ft / 1,359 m (AMSL)
30R Glidescope ITBZ 109.90 MHz 10 nm / 19 km 309.06° 303.43° 3.00° 4,459 ft / 1,359 m (AMSL)
30R DME ITBZ 109.90 MHz 18 nm / 33 km - - - 4,459 ft / 1,359 m (AMSL)